createdAt,value
2023-01-20T00:01:48.302Z,50.40
2023-01-20T00:04:22.009Z,52.00
2023-01-20T00:06:56.416Z,48.80
2023-01-20T00:09:30.086Z,53.40
2023-01-20T00:12:03.773Z,49.30
2023-01-20T00:14:37.886Z,46.80
2023-01-20T00:17:11.710Z,46.90
2023-01-20T00:19:45.401Z,50.40
2023-01-20T00:22:19.421Z,49.60
2023-01-20T00:24:53.105Z,47.80
2023-01-20T00:27:26.760Z,47.40
2023-01-20T00:30:00.590Z,41.90
2023-01-20T00:32:37.844Z,45.70
2023-01-20T00:35:12.634Z,41.60
2023-01-20T00:37:46.727Z,46.70
2023-01-20T00:40:20.822Z,45.50
2023-01-20T00:42:55.196Z,46.40
2023-01-20T00:45:29.946Z,46.40
2023-01-20T00:48:04.302Z,45.40
2023-01-20T00:50:37.664Z,42.00
2023-01-20T00:53:11.577Z,40.70
2023-01-20T00:55:45.196Z,42.70
2023-01-20T00:58:19.283Z,44.60
2023-01-20T01:00:53.726Z,44.80
2023-01-20T01:03:29.253Z,43.50
2023-01-20T01:06:12.529Z,40.90
2023-01-20T01:08:46.792Z,40.70
2023-01-20T01:11:20.550Z,41.10
2023-01-20T01:13:56.432Z,45.80
2023-01-20T01:16:30.481Z,43.70
2023-01-20T01:19:04.132Z,44.80
2023-01-20T01:21:40.657Z,44.60
2023-01-20T01:24:15.244Z,41.40
2023-01-20T01:26:49.055Z,38.60
2023-01-20T01:29:22.765Z,41.30
2023-01-20T01:31:56.828Z,40.60
2023-01-20T01:34:30.969Z,40.90
2023-01-20T01:37:04.515Z,40.40
2023-01-20T01:39:38.409Z,43.20
2023-01-20T01:42:16.192Z,42.10
2023-01-20T01:45:19.880Z,45.30
2023-01-20T01:48:04.078Z,40.20
2023-01-20T01:50:43.930Z,40.00
2023-01-20T01:53:19.128Z,41.30
2023-01-20T01:55:56.000Z,39.70
2023-01-20T01:58:33.645Z,37.80
2023-01-20T02:01:07.905Z,41.00
2023-01-20T02:03:49.961Z,39.80
2023-01-20T02:06:26.056Z,40.10
2023-01-20T02:09:00.971Z,40.30
2023-01-20T02:11:38.263Z,39.70
2023-01-20T02:14:16.072Z,41.00
2023-01-20T02:16:58.804Z,41.30
2023-01-20T02:20:04.233Z,41.50
2023-01-20T02:22:49.406Z,40.30
2023-01-20T02:25:54.786Z,41.20
2023-01-20T02:28:55.720Z,36.80
2023-01-20T02:32:07.544Z,37.60
2023-01-20T02:34:46.171Z,40.20
2023-01-20T02:40:07.682Z,36.40
2023-01-20T02:42:45.227Z,41.90
2023-01-20T02:45:25.836Z,38.80
2023-01-20T02:48:03.554Z,40.90
2023-01-20T02:50:42.415Z,40.50
2023-01-20T02:53:19.606Z,35.90
2023-01-20T02:55:56.005Z,36.40
2023-01-20T02:58:38.546Z,36.70
2023-01-20T03:01:15.537Z,37.60
2023-01-20T03:03:53.900Z,38.10
2023-01-20T03:06:32.424Z,37.80
2023-01-20T03:09:10.637Z,41.80
2023-01-20T03:11:52.492Z,39.30
2023-01-20T03:14:33.805Z,39.20
2023-01-20T03:17:07.700Z,39.20
2023-01-20T03:19:41.765Z,41.30
2023-01-20T03:22:15.510Z,40.60
2023-01-20T03:24:50.113Z,38.40
2023-01-20T03:27:24.008Z,41.30
2023-01-20T03:29:58.022Z,42.80
2023-01-20T03:32:32.819Z,40.00
2023-01-20T03:35:10.564Z,38.60
2023-01-20T03:37:44.482Z,40.80
2023-01-20T03:40:19.551Z,42.60
2023-01-20T03:43:02.068Z,44.70
2023-01-20T03:45:42.937Z,44.30
2023-01-20T03:48:20.796Z,44.90
2023-01-20T03:51:00.496Z,47.20
2023-01-20T03:53:45.639Z,46.20
2023-01-20T03:56:24.256Z,46.90
2023-01-20T04:01:37.253Z,48.70
2023-01-20T04:04:16.522Z,46.00
2023-01-20T04:06:52.197Z,50.10
2023-01-20T04:09:30.902Z,46.30
2023-01-20T04:12:04.739Z,46.90
2023-01-20T04:14:39.919Z,48.50
2023-01-20T04:17:14.655Z,47.20
2023-01-20T04:19:48.722Z,45.70
2023-01-20T04:22:26.959Z,45.70
2023-01-20T04:25:05.325Z,43.80
2023-01-20T04:27:39.076Z,43.10
2023-01-20T04:30:16.182Z,51.70
2023-01-20T04:32:49.714Z,43.00
2023-01-20T04:35:23.615Z,41.40
2023-01-20T04:37:57.569Z,44.30
2023-01-20T04:40:31.798Z,45.40
2023-01-20T04:43:05.597Z,47.10
2023-01-20T04:45:39.376Z,44.70
2023-01-20T04:48:13.730Z,54.80
2023-01-20T04:50:47.485Z,46.40
2023-01-20T04:53:21.511Z,48.60
2023-01-20T04:55:55.292Z,54.90
2023-01-20T04:58:29.607Z,47.60
2023-01-20T05:01:04.818Z,52.90
2023-01-20T05:03:39.067Z,53.10
2023-01-20T05:06:13.534Z,54.90
2023-01-20T05:08:47.579Z,61.20
2023-01-20T05:11:21.352Z,57.30
2023-01-20T05:13:55.197Z,50.00
2023-01-20T05:16:32.736Z,54.90
2023-01-20T05:19:06.846Z,49.40
2023-01-20T05:21:41.605Z,54.60
2023-01-20T05:24:15.780Z,59.30
2023-01-20T05:26:49.859Z,56.30
2023-01-20T05:29:24.007Z,57.70
2023-01-20T05:31:57.983Z,57.70
2023-01-20T05:34:31.764Z,56.70
2023-01-20T05:37:05.556Z,67.30
2023-01-20T05:39:39.041Z,53.80
2023-01-20T05:42:12.876Z,61.90
2023-01-20T05:44:46.629Z,65.40
2023-01-20T05:47:20.420Z,64.90
2023-01-20T05:49:55.072Z,71.40
2023-01-20T05:52:29.194Z,61.20
2023-01-20T05:55:02.838Z,69.50
2023-01-20T05:57:36.633Z,70.00
2023-01-20T06:00:12.875Z,62.20
2023-01-20T06:02:47.216Z,66.60
2023-01-20T06:05:21.984Z,62.00
2023-01-20T06:07:56.120Z,67.00
2023-01-20T06:10:30.043Z,63.90
2023-01-20T06:13:03.775Z,67.40
2023-01-20T06:15:37.681Z,67.60
2023-01-20T06:18:13.148Z,71.90
2023-01-20T06:20:47.125Z,70.80
2023-01-20T06:23:21.885Z,65.80
2023-01-20T06:26:03.771Z,57.70
2023-01-20T06:28:38.180Z,67.10
2023-01-20T06:31:14.780Z,67.30
2023-01-20T06:33:49.065Z,66.40
2023-01-20T06:36:22.499Z,65.30
2023-01-20T06:38:56.683Z,71.30
2023-01-20T06:41:30.240Z,71.90
2023-01-20T06:44:04.642Z,67.70
2023-01-20T06:46:38.674Z,71.80
2023-01-20T06:49:12.230Z,71.30
2023-01-20T06:51:48.201Z,62.20
2023-01-20T06:54:22.039Z,64.10
2023-01-20T06:57:05.571Z,55.50
2023-01-20T06:59:39.347Z,58.10
2023-01-20T07:02:14.887Z,60.60
2023-01-20T07:04:48.614Z,60.50
2023-01-20T07:07:22.402Z,58.70
2023-01-20T07:09:58.933Z,51.90
2023-01-20T07:12:32.667Z,51.30
2023-01-20T07:15:12.037Z,55.20
2023-01-20T07:17:45.795Z,59.00
2023-01-20T07:20:20.556Z,54.00
2023-01-20T07:22:54.352Z,52.40
2023-01-20T07:25:28.259Z,48.70
2023-01-20T07:28:02.016Z,52.90
2023-01-20T07:30:36.001Z,51.40
2023-01-20T07:33:09.912Z,53.80
2023-01-20T07:35:43.347Z,49.20
2023-01-20T07:38:16.650Z,47.90
2023-01-20T07:40:51.118Z,48.40
2023-01-20T07:43:24.934Z,48.20
2023-01-20T07:46:00.866Z,47.90
2023-01-20T07:48:35.594Z,46.40
2023-01-20T07:51:11.874Z,47.10
2023-01-20T07:53:48.077Z,47.60
2023-01-20T07:56:23.917Z,44.00
2023-01-20T07:58:59.226Z,43.20
2023-01-20T08:01:34.185Z,43.90
2023-01-20T08:04:07.988Z,46.20
2023-01-20T08:06:42.411Z,48.80
2023-01-20T08:09:16.440Z,44.70
2023-01-20T08:11:50.426Z,41.90
2023-01-20T08:14:24.116Z,44.20
2023-01-20T08:16:57.968Z,43.00
2023-01-20T08:19:33.614Z,42.70
2023-01-20T08:22:07.291Z,45.40
2023-01-20T08:24:40.761Z,40.20
2023-01-20T08:27:14.334Z,41.70
2023-01-20T08:29:48.502Z,38.90
2023-01-20T08:32:22.553Z,42.60
2023-01-20T08:34:56.279Z,39.30
2023-01-20T08:37:29.836Z,43.40
2023-01-20T08:40:03.690Z,38.00
2023-01-20T08:42:38.373Z,36.80
2023-01-20T08:45:14.017Z,38.30
2023-01-20T08:47:48.120Z,33.90
2023-01-20T08:50:23.762Z,36.70
2023-01-20T08:52:58.123Z,36.50
2023-01-20T08:55:32.619Z,35.40
2023-01-20T08:58:06.236Z,37.30
2023-01-20T09:00:40.091Z,32.50
2023-01-20T09:03:15.488Z,39.80
2023-01-20T09:05:49.663Z,38.80
2023-01-20T09:08:27.291Z,41.10
2023-01-20T09:11:07.840Z,56.40
2023-01-20T09:13:41.734Z,49.10
2023-01-20T09:16:17.049Z,43.30
2023-01-20T09:18:50.901Z,43.20
2023-01-20T09:21:24.747Z,38.20
2023-01-20T09:23:58.405Z,38.10
2023-01-20T09:26:39.245Z,37.90
2023-01-20T09:29:15.088Z,33.30
2023-01-20T09:31:50.968Z,37.70
2023-01-20T09:34:25.648Z,38.40
2023-01-20T09:37:21.917Z,34.00
2023-01-20T09:40:13.380Z,35.60
2023-01-20T09:43:22.305Z,36.20
2023-01-20T09:46:03.354Z,33.50
2023-01-20T09:49:05.094Z,33.00
2023-01-20T09:52:05.599Z,31.80
2023-01-20T09:54:43.735Z,33.20
2023-01-20T09:57:19.503Z,28.40
2023-01-20T09:59:55.506Z,29.50
2023-01-20T10:02:34.235Z,29.40
2023-01-20T10:05:14.341Z,28.70
2023-01-20T10:07:52.465Z,28.20
2023-01-20T10:10:32.925Z,29.70
2023-01-20T10:13:15.061Z,32.90
2023-01-20T10:15:52.412Z,32.30
2023-01-20T10:18:32.032Z,34.40
2023-01-20T10:21:11.614Z,36.60
2023-01-20T10:23:51.415Z,30.80
2023-01-20T10:26:28.905Z,33.90
2023-01-20T10:29:05.980Z,29.70
2023-01-20T10:31:45.033Z,34.40
2023-01-20T10:34:22.883Z,34.30
2023-01-20T10:37:03.214Z,35.10
2023-01-20T10:39:43.992Z,34.40
2023-01-20T10:42:19.670Z,33.60
2023-01-20T10:44:55.078Z,33.60
2023-01-20T10:47:43.952Z,30.00
2023-01-20T10:50:45.278Z,27.90
2023-01-20T10:53:36.083Z,36.80
2023-01-20T10:56:27.290Z,31.70
2023-01-20T10:59:09.135Z,34.20
2023-01-20T11:01:43.976Z,29.50
2023-01-20T11:04:26.721Z,49.90
2023-01-20T11:07:04.121Z,39.50
2023-01-20T11:09:39.454Z,34.50
2023-01-20T11:12:18.649Z,32.20
2023-01-20T11:14:53.669Z,33.80
2023-01-20T11:17:27.862Z,34.70
2023-01-20T11:20:21.297Z,36.20
2023-01-20T11:22:55.088Z,34.70
2023-01-20T11:25:30.123Z,32.40
2023-01-20T11:28:06.952Z,31.80
2023-01-20T11:30:42.029Z,31.30
2023-01-20T11:33:23.716Z,31.90
2023-01-20T11:36:09.208Z,30.40
2023-01-20T11:38:48.371Z,30.30
2023-01-20T11:41:26.675Z,31.20
2023-01-20T11:44:01.811Z,33.20
2023-01-20T11:46:37.699Z,33.50
2023-01-20T11:49:24.404Z,32.00
2023-01-20T11:52:21.379Z,27.50
2023-01-20T11:55:11.852Z,29.80
2023-01-20T11:57:49.220Z,25.10
2023-01-20T12:00:39.489Z,26.30
2023-01-20T12:03:30.616Z,29.60
2023-01-20T12:06:11.447Z,26.20
2023-01-20T12:08:51.220Z,29.10
2023-01-20T12:11:30.918Z,31.30
2023-01-20T12:14:28.001Z,28.80
2023-01-20T12:17:35.661Z,28.90
2023-01-20T12:20:17.448Z,28.30
2023-01-20T12:23:01.072Z,24.00
2023-01-20T12:25:43.859Z,23.70
2023-01-20T12:28:21.506Z,23.20
2023-01-20T12:31:02.384Z,24.00
2023-01-20T12:33:39.044Z,25.00
2023-01-20T12:36:42.817Z,22.10
2023-01-20T12:39:40.416Z,22.40
2023-01-20T12:42:54.768Z,25.30
2023-01-20T12:45:43.001Z,26.70
2023-01-20T12:51:23.017Z,25.10
2023-01-20T12:54:20.590Z,31.40
2023-01-20T12:57:04.533Z,31.40
2023-01-20T12:59:54.982Z,25.00
2023-01-20T13:02:52.936Z,26.20
2023-01-20T13:06:01.370Z,20.70
2023-01-20T13:11:23.809Z,19.30
2023-01-20T13:14:12.294Z,21.30
2023-01-20T13:16:53.212Z,20.40
2023-01-20T13:19:35.238Z,18.70
2023-01-20T13:22:15.718Z,19.60
2023-01-20T13:24:50.536Z,18.80
2023-01-20T13:27:29.799Z,19.50
2023-01-20T13:30:05.642Z,20.00
2023-01-20T13:32:45.621Z,25.20
2023-01-20T13:35:47.727Z,26.80
2023-01-20T13:38:28.152Z,25.30
2023-01-20T13:41:06.623Z,23.30
2023-01-20T13:44:15.004Z,28.60
2023-01-20T13:46:50.982Z,24.40
2023-01-20T13:49:53.802Z,21.90
2023-01-20T13:53:01.912Z,24.30
2023-01-20T13:55:54.307Z,24.20
2023-01-20T13:58:29.157Z,20.70
2023-01-20T14:01:04.758Z,20.90
2023-01-20T14:03:39.840Z,19.30
2023-01-20T14:06:24.375Z,22.00
2023-01-20T14:08:58.164Z,23.30
2023-01-20T14:11:32.960Z,21.60
2023-01-20T14:14:07.458Z,18.00
2023-01-20T14:16:44.659Z,18.50
2023-01-20T14:19:25.276Z,18.90
2023-01-20T14:22:02.069Z,18.90
2023-01-20T14:24:37.955Z,19.90
2023-01-20T14:27:17.836Z,21.20
2023-01-20T14:29:54.281Z,20.70
2023-01-20T14:32:30.210Z,19.80
2023-01-20T14:35:14.327Z,16.70
2023-01-20T14:37:53.456Z,20.10
2023-01-20T14:40:31.363Z,18.60
2023-01-20T14:43:15.196Z,19.60
2023-01-20T14:45:51.937Z,14.80
2023-01-20T14:48:34.407Z,14.60
2023-01-20T14:51:12.178Z,15.80
2023-01-20T14:53:47.436Z,14.80
2023-01-20T14:56:24.938Z,15.40
2023-01-20T14:58:59.066Z,16.80
2023-01-20T15:01:33.155Z,17.10
2023-01-20T15:04:07.696Z,17.20
2023-01-20T15:06:42.084Z,18.10
2023-01-20T15:09:29.993Z,17.00
2023-01-20T15:12:40.045Z,18.60
2023-01-20T15:15:26.515Z,16.30
2023-01-20T15:18:23.998Z,15.90
2023-01-20T15:21:17.284Z,16.80
2023-01-20T15:23:53.106Z,19.20
2023-01-20T15:26:30.893Z,19.60
2023-01-20T15:29:04.556Z,18.90
2023-01-20T15:31:38.350Z,20.00
2023-01-20T15:34:12.874Z,20.50
2023-01-20T15:36:47.616Z,20.40
2023-01-20T15:39:23.123Z,21.80
2023-01-20T15:41:57.464Z,22.30
2023-01-20T15:44:31.567Z,24.70
2023-01-20T15:47:07.643Z,23.40
2023-01-20T15:49:41.420Z,22.80
2023-01-20T15:52:15.157Z,26.40
2023-01-20T15:54:48.931Z,26.30
2023-01-20T15:57:23.464Z,30.60
2023-01-20T15:59:57.929Z,26.10
2023-01-20T16:02:31.981Z,26.60
2023-01-20T16:05:06.254Z,27.10
2023-01-20T16:07:40.839Z,28.80
2023-01-20T16:10:18.256Z,27.10
2023-01-20T16:12:52.685Z,31.00
2023-01-20T16:15:26.923Z,28.60
2023-01-20T16:18:00.573Z,30.70
2023-01-20T16:20:35.871Z,25.90
2023-01-20T16:23:09.413Z,26.60
2023-01-20T16:25:43.682Z,28.60
2023-01-20T16:28:21.644Z,25.00
2023-01-20T16:30:58.461Z,27.60
2023-01-20T16:33:33.667Z,28.20
2023-01-20T16:36:12.447Z,26.30
2023-01-20T16:38:47.059Z,24.30
2023-01-20T16:41:24.817Z,21.20
2023-01-20T16:44:00.044Z,19.20
2023-01-20T16:46:35.982Z,19.70
2023-01-20T16:49:09.966Z,18.20
2023-01-20T16:51:43.857Z,17.70
2023-01-20T16:54:18.198Z,13.80
2023-01-20T16:56:52.254Z,16.60
2023-01-20T16:59:26.647Z,16.90
2023-01-20T17:02:00.752Z,16.60
2023-01-20T17:04:35.615Z,16.90
2023-01-20T17:07:10.159Z,20.40
2023-01-20T17:09:46.020Z,19.70
2023-01-20T17:12:19.778Z,16.70
2023-01-20T17:14:54.565Z,17.90
2023-01-20T17:17:31.967Z,17.00
2023-01-20T17:20:10.550Z,17.00
2023-01-20T17:22:45.724Z,21.10
2023-01-20T17:25:20.197Z,18.80
2023-01-20T17:27:55.411Z,20.60
2023-01-20T17:30:30.797Z,20.40
2023-01-20T17:33:05.907Z,19.70
2023-01-20T17:35:42.503Z,19.20
2023-01-20T17:38:18.815Z,18.80
2023-01-20T17:40:54.153Z,17.60
2023-01-20T17:43:33.009Z,15.20
2023-01-20T17:48:49.351Z,16.20
2023-01-20T17:51:25.297Z,17.50
2023-01-20T17:54:04.545Z,16.80
2023-01-20T17:56:40.407Z,17.90
2023-01-20T17:59:15.447Z,16.70
2023-01-20T18:01:53.234Z,15.30
2023-01-20T18:04:35.547Z,15.40
2023-01-20T18:07:11.671Z,14.50
2023-01-20T18:09:48.103Z,14.70
2023-01-20T18:12:25.584Z,14.90
2023-01-20T18:15:00.875Z,13.30
2023-01-20T18:17:35.113Z,14.10
2023-01-20T18:20:15.973Z,12.70
2023-01-20T18:22:53.604Z,12.00
2023-01-20T18:25:28.719Z,15.20
2023-01-20T18:28:07.573Z,13.50
2023-01-20T18:30:42.437Z,15.80
2023-01-20T18:33:19.002Z,14.70
2023-01-20T18:36:01.671Z,16.90
2023-01-20T18:38:39.028Z,17.00
2023-01-20T18:41:15.431Z,14.10
2023-01-20T18:43:51.316Z,15.60
2023-01-20T18:46:31.145Z,14.50
2023-01-20T18:49:09.824Z,14.80
2023-01-20T18:51:51.202Z,15.80
2023-01-20T18:54:27.518Z,13.40
2023-01-20T18:57:10.601Z,15.80
2023-01-20T18:59:47.139Z,16.60
2023-01-20T19:02:23.212Z,14.80
2023-01-20T19:05:04.442Z,12.90
2023-01-20T19:07:43.680Z,14.50
2023-01-20T19:10:22.784Z,14.90
2023-01-20T19:12:59.223Z,11.80
2023-01-20T19:15:35.666Z,15.10
2023-01-20T19:18:11.981Z,14.70
2023-01-20T19:20:47.992Z,15.00
2023-01-20T19:23:26.819Z,13.80
2023-01-20T19:26:07.717Z,14.20
2023-01-20T19:28:59.833Z,13.60
2023-01-20T19:31:43.500Z,12.90
2023-01-20T19:34:19.837Z,13.10
2023-01-20T19:36:56.554Z,14.80
2023-01-20T19:39:33.192Z,12.50
2023-01-20T19:42:14.963Z,14.00
2023-01-20T19:44:55.587Z,12.10
2023-01-20T19:47:35.279Z,11.90
2023-01-20T19:50:13.872Z,12.30
2023-01-20T19:52:54.074Z,11.10
2023-01-20T19:55:32.355Z,13.40
2023-01-20T19:58:08.050Z,10.70
2023-01-20T20:00:47.548Z,11.40
2023-01-20T20:03:28.203Z,12.10
2023-01-20T20:06:08.191Z,10.30
2023-01-20T20:08:47.675Z,10.90
2023-01-20T20:11:24.637Z,10.20
2023-01-20T20:14:04.703Z,10.80
2023-01-20T20:16:42.864Z,11.50
2023-01-20T20:19:24.007Z,12.10
2023-01-20T20:22:02.221Z,12.00
2023-01-20T20:24:41.189Z,12.30
2023-01-20T20:27:19.512Z,11.70
2023-01-20T20:30:01.079Z,11.40
2023-01-20T20:32:43.422Z,13.40
2023-01-20T20:35:21.968Z,13.40
2023-01-20T20:37:59.516Z,13.60
2023-01-20T20:40:35.951Z,14.10
2023-01-20T20:43:12.833Z,14.40
2023-01-20T20:45:49.306Z,14.80
2023-01-20T20:48:28.900Z,14.70
2023-01-20T20:51:11.278Z,14.10
2023-01-20T20:53:49.200Z,16.30
2023-01-20T20:56:25.693Z,15.20
2023-01-20T20:59:04.314Z,14.50
2023-01-20T21:04:15.021Z,15.90
2023-01-20T21:06:51.848Z,15.10
2023-01-20T21:09:33.277Z,15.40
2023-01-20T21:12:10.036Z,14.40
2023-01-20T21:14:46.210Z,13.70
2023-01-20T21:17:22.299Z,15.20
2023-01-20T21:19:58.316Z,12.50
2023-01-20T21:22:34.390Z,13.00
2023-01-20T21:25:14.733Z,13.00
2023-01-20T21:27:49.493Z,12.90
2023-01-20T21:30:25.214Z,11.50
2023-01-20T21:33:00.098Z,10.50
2023-01-20T21:35:38.954Z,12.50
2023-01-20T21:38:12.737Z,10.50
2023-01-20T21:41:00.743Z,10.20
2023-01-20T21:43:56.105Z,10.70
2023-01-20T21:46:32.072Z,12.50
2023-01-20T21:49:24.737Z,11.00
2023-01-20T21:52:18.031Z,10.60
2023-01-20T21:54:52.228Z,10.10
2023-01-20T21:57:26.160Z,9.90
2023-01-20T22:00:00.306Z,10.30
2023-01-20T22:02:34.771Z,11.20
2023-01-20T22:05:09.542Z,11.60
2023-01-20T22:07:43.569Z,10.80
2023-01-20T22:10:17.273Z,8.90
2023-01-20T22:12:51.534Z,8.90
2023-01-20T22:15:26.057Z,11.20
2023-01-20T22:18:00.141Z,8.70
2023-01-20T22:20:34.042Z,10.20
2023-01-20T22:23:08.169Z,10.80
2023-01-20T22:25:42.037Z,11.00
2023-01-20T22:28:15.601Z,10.90
2023-01-20T22:30:49.473Z,10.80
2023-01-20T22:33:23.094Z,9.40
2023-01-20T22:35:59.282Z,11.10
2023-01-20T22:38:34.485Z,10.80
2023-01-20T22:41:09.706Z,12.00
2023-01-20T22:43:45.227Z,12.50
2023-01-20T22:46:21.626Z,13.20
2023-01-20T22:48:57.027Z,14.10
2023-01-20T22:51:32.316Z,13.50
2023-01-20T22:54:07.481Z,13.60
2023-01-20T22:56:41.377Z,11.80
2023-01-20T22:59:15.671Z,12.50
2023-01-20T23:01:49.643Z,13.40
2023-01-20T23:04:23.739Z,10.60
2023-01-20T23:06:57.782Z,13.80
2023-01-20T23:09:31.996Z,13.20
2023-01-20T23:12:05.719Z,13.10
2023-01-20T23:14:54.008Z,11.00
2023-01-20T23:17:29.011Z,16.00
2023-01-20T23:20:02.900Z,16.10
2023-01-20T23:22:36.524Z,16.00
2023-01-20T23:25:11.322Z,15.60
2023-01-20T23:27:45.244Z,17.70
2023-01-20T23:30:23.319Z,15.70
2023-01-20T23:32:56.838Z,15.80
2023-01-20T23:35:31.119Z,15.30
2023-01-20T23:38:04.676Z,15.40
2023-01-20T23:40:39.129Z,15.40
2023-01-20T23:43:13.349Z,17.90
2023-01-20T23:45:47.004Z,15.90
2023-01-20T23:48:20.623Z,16.50
2023-01-20T23:50:55.091Z,16.80
2023-01-20T23:53:29.758Z,18.40
2023-01-20T23:56:07.932Z,16.40
2023-01-20T23:58:41.988Z,15.70
